sensor_id;sensor_type;location;lat;lon;timestamp;P1;durP1;ratioP1;P2;durP2;ratioP2
40847;SDS011;26570;50.962;5.340;2023-06-10T00:04:21;8.70;;;5.40;;
40847;SDS011;26570;50.962;5.340;2023-06-10T00:07:14;7.43;;;4.67;;
40847;SDS011;26570;50.962;5.340;2023-06-10T00:10:09;7.30;;;5.17;;
40847;SDS011;26570;50.962;5.340;2023-06-10T00:13:04;7.95;;;5.40;;
40847;SDS011;26570;50.962;5.340;2023-06-10T00:15:54;7.33;;;6.07;;
40847;SDS011;26570;50.962;5.340;2023-06-10T00:18:45;6.90;;;6.20;;
40847;SDS011;26570;50.962;5.340;2023-06-10T00:22:19;7.53;;;5.70;;
40847;SDS011;26570;50.962;5.340;2023-06-10T00:28:02;6.57;;;5.70;;
40847;SDS011;26570;50.962;5.340;2023-06-10T00:30:59;7.23;;;6.13;;
40847;SDS011;26570;50.962;5.340;2023-06-10T00:33:59;6.83;;;5.70;;
40847;SDS011;26570;50.962;5.340;2023-06-10T00:37:05;6.10;;;5.60;;
40847;SDS011;26570;50.962;5.340;2023-06-10T00:40:27;10.63;;;6.30;;
40847;SDS011;26570;50.962;5.340;2023-06-10T00:43:23;8.77;;;6.23;;
40847;SDS011;26570;50.962;5.340;2023-06-10T00:46:12;10.77;;;6.13;;
40847;SDS011;26570;50.962;5.340;2023-06-10T00:49:03;7.43;;;5.70;;
40847;SDS011;26570;50.962;5.340;2023-06-10T00:51:52;10.47;;;7.20;;
40847;SDS011;26570;50.962;5.340;2023-06-10T00:54:43;7.63;;;6.47;;
40847;SDS011;26570;50.962;5.340;2023-06-10T00:57:56;9.03;;;6.43;;
40847;SDS011;26570;50.962;5.340;2023-06-10T01:00:48;7.03;;;6.33;;
40847;SDS011;26570;50.962;5.340;2023-06-10T01:03:46;10.47;;;7.00;;
40847;SDS011;26570;50.962;5.340;2023-06-10T01:07:20;8.80;;;6.83;;
40847;SDS011;26570;50.962;5.340;2023-06-10T01:10:19;8.77;;;6.30;;
40847;SDS011;26570;50.962;5.340;2023-06-10T01:16:58;6.67;;;5.77;;
40847;SDS011;26570;50.962;5.340;2023-06-10T01:20:11;9.43;;;6.10;;
40847;SDS011;26570;50.962;5.340;2023-06-10T01:23:18;7.93;;;5.83;;
40847;SDS011;26570;50.962;5.340;2023-06-10T01:26:10;7.57;;;6.37;;
40847;SDS011;26570;50.962;5.340;2023-06-10T01:32:34;6.90;;;6.20;;
40847;SDS011;26570;50.962;5.340;2023-06-10T01:35:26;9.67;;;6.07;;
40847;SDS011;26570;50.962;5.340;2023-06-10T01:38:17;8.17;;;6.53;;
40847;SDS011;26570;50.962;5.340;2023-06-10T01:41:16;7.63;;;6.83;;
40847;SDS011;26570;50.962;5.340;2023-06-10T01:44:17;7.87;;;6.97;;
40847;SDS011;26570;50.962;5.340;2023-06-10T01:47:20;9.70;;;7.07;;
40847;SDS011;26570;50.962;5.340;2023-06-10T01:50:35;8.53;;;7.67;;
40847;SDS011;26570;50.962;5.340;2023-06-10T01:53:51;14.60;;;7.27;;
40847;SDS011;26570;50.962;5.340;2023-06-10T01:57:04;8.83;;;7.37;;
40847;SDS011;26570;50.962;5.340;2023-06-10T01:59:56;8.57;;;7.27;;
40847;SDS011;26570;50.962;5.340;2023-06-10T02:02:47;8.75;;;7.10;;
40847;SDS011;26570;50.962;5.340;2023-06-10T02:05:52;7.90;;;7.20;;
40847;SDS011;26570;50.962;5.340;2023-06-10T02:08:47;7.83;;;6.40;;
40847;SDS011;26570;50.962;5.340;2023-06-10T02:11:51;12.80;;;7.97;;
40847;SDS011;26570;50.962;5.340;2023-06-10T02:15:07;10.50;;;6.97;;
40847;SDS011;26570;50.962;5.340;2023-06-10T02:18:29;8.23;;;7.43;;
40847;SDS011;26570;50.962;5.340;2023-06-10T02:21:15;12.17;;;7.40;;
40847;SDS011;26570;50.962;5.340;2023-06-10T02:24:13;10.23;;;7.03;;
40847;SDS011;26570;50.962;5.340;2023-06-10T02:27:09;8.17;;;7.33;;
40847;SDS011;26570;50.962;5.340;2023-06-10T02:30:42;14.10;;;8.13;;
40847;SDS011;26570;50.962;5.340;2023-06-10T02:34:00;9.03;;;7.23;;
40847;SDS011;26570;50.962;5.340;2023-06-10T02:36:50;8.00;;;7.20;;
40847;SDS011;26570;50.962;5.340;2023-06-10T02:39:43;9.32;;;6.90;;
40847;SDS011;26570;50.962;5.340;2023-06-10T02:42:33;8.27;;;7.50;;
40847;SDS011;26570;50.962;5.340;2023-06-10T02:45:49;11.80;;;7.10;;
40847;SDS011;26570;50.962;5.340;2023-06-10T02:48:43;11.40;;;8.00;;
40847;SDS011;26570;50.962;5.340;2023-06-10T02:52:02;13.50;;;8.47;;
40847;SDS011;26570;50.962;5.340;2023-06-10T02:55:26;8.57;;;7.33;;
40847;SDS011;26570;50.962;5.340;2023-06-10T02:58:16;8.83;;;7.93;;
40847;SDS011;26570;50.962;5.340;2023-06-10T03:01:14;9.43;;;8.53;;
40847;SDS011;26570;50.962;5.340;2023-06-10T03:04:28;10.07;;;9.02;;
40847;SDS011;26570;50.962;5.340;2023-06-10T03:07:15;9.77;;;8.37;;
40847;SDS011;26570;50.962;5.340;2023-06-10T03:10:14;9.30;;;8.33;;
40847;SDS011;26570;50.962;5.340;2023-06-10T03:13:36;10.17;;;9.17;;
40847;SDS011;26570;50.962;5.340;2023-06-10T03:16:26;10.63;;;9.27;;
40847;SDS011;26570;50.962;5.340;2023-06-10T03:19:36;14.40;;;8.90;;
40847;SDS011;26570;50.962;5.340;2023-06-10T03:23:01;11.63;;;9.47;;
40847;SDS011;26570;50.962;5.340;2023-06-10T03:26:00;10.57;;;8.83;;
40847;SDS011;26570;50.962;5.340;2023-06-10T03:29:05;9.60;;;8.40;;
40847;SDS011;26570;50.962;5.340;2023-06-10T03:32:20;9.57;;;8.60;;
40847;SDS011;26570;50.962;5.340;2023-06-10T03:35:14;11.60;;;8.37;;
40847;SDS011;26570;50.962;5.340;2023-06-10T03:38:35;9.87;;;8.37;;
40847;SDS011;26570;50.962;5.340;2023-06-10T03:41:23;11.33;;;8.47;;
40847;SDS011;26570;50.962;5.340;2023-06-10T03:44:24;8.93;;;8.00;;
40847;SDS011;26570;50.962;5.340;2023-06-10T03:47:15;11.57;;;8.07;;
40847;SDS011;26570;50.962;5.340;2023-06-10T03:50:39;12.07;;;8.50;;
40847;SDS011;26570;50.962;5.340;2023-06-10T03:53:36;11.07;;;8.83;;
40847;SDS011;26570;50.962;5.340;2023-06-10T03:56:51;9.00;;;7.73;;
40847;SDS011;26570;50.962;5.340;2023-06-10T04:00:12;9.63;;;8.17;;
40847;SDS011;26570;50.962;5.340;2023-06-10T04:03:28;9.73;;;8.77;;
40847;SDS011;26570;50.962;5.340;2023-06-10T04:06:22;9.00;;;8.00;;
40847;SDS011;26570;50.962;5.340;2023-06-10T04:09:38;9.68;;;8.77;;
40847;SDS011;26570;50.962;5.340;2023-06-10T04:12:41;8.47;;;7.27;;
40847;SDS011;26570;50.962;5.340;2023-06-10T04:15:36;10.10;;;7.20;;
40847;SDS011;26570;50.962;5.340;2023-06-10T04:18:58;11.77;;;8.10;;
40847;SDS011;26570;50.962;5.340;2023-06-10T04:21:56;9.63;;;7.70;;
40847;SDS011;26570;50.962;5.340;2023-06-10T04:24:57;7.97;;;7.17;;
40847;SDS011;26570;50.962;5.340;2023-06-10T04:27:47;10.57;;;8.33;;
40847;SDS011;26570;50.962;5.340;2023-06-10T04:30:43;8.60;;;7.77;;
40847;SDS011;26570;50.962;5.340;2023-06-10T04:33:31;8.63;;;7.83;;
40847;SDS011;26570;50.962;5.340;2023-06-10T04:36:27;7.93;;;7.23;;
40847;SDS011;26570;50.962;5.340;2023-06-10T04:39:45;11.37;;;7.80;;
40847;SDS011;26570;50.962;5.340;2023-06-10T04:43:03;8.77;;;7.83;;
40847;SDS011;26570;50.962;5.340;2023-06-10T04:46:22;11.77;;;8.30;;
40847;SDS011;26570;50.962;5.340;2023-06-10T04:49:16;11.53;;;7.73;;
40847;SDS011;26570;50.962;5.340;2023-06-10T04:52:25;8.33;;;7.53;;
40847;SDS011;26570;50.962;5.340;2023-06-10T04:55:38;8.40;;;7.60;;
40847;SDS011;26570;50.962;5.340;2023-06-10T04:58:48;9.83;;;7.43;;
40847;SDS011;26570;50.962;5.340;2023-06-10T05:01:42;8.60;;;7.77;;
40847;SDS011;26570;50.962;5.340;2023-06-10T05:04:43;14.40;;;8.23;;
40847;SDS011;26570;50.962;5.340;2023-06-10T05:07:41;21.30;;;9.20;;
40847;SDS011;26570;50.962;5.340;2023-06-10T05:10:35;12.00;;;8.03;;
40847;SDS011;26570;50.962;5.340;2023-06-10T05:13:41;7.83;;;7.10;;
40847;SDS011;26570;50.962;5.340;2023-06-10T05:16:59;10.03;;;8.67;;
40847;SDS011;26570;50.962;5.340;2023-06-10T05:19:49;11.10;;;7.67;;
40847;SDS011;26570;50.962;5.340;2023-06-10T05:22:55;8.30;;;7.47;;
40847;SDS011;26570;50.962;5.340;2023-06-10T05:25:45;7.83;;;6.90;;
40847;SDS011;26570;50.962;5.340;2023-06-10T05:28:38;7.57;;;6.80;;
40847;SDS011;26570;50.962;5.340;2023-06-10T05:31:55;8.63;;;7.23;;
40847;SDS011;26570;50.962;5.340;2023-06-10T05:35:17;8.67;;;6.80;;
40847;SDS011;26570;50.962;5.340;2023-06-10T05:38:32;11.35;;;8.70;;
40847;SDS011;26570;50.962;5.340;2023-06-10T05:41:34;7.70;;;7.03;;
40847;SDS011;26570;50.962;5.340;2023-06-10T05:45:12;6.75;;;5.93;;
40847;SDS011;26570;50.962;5.340;2023-06-10T05:48:52;9.57;;;5.88;;
40847;SDS011;26570;50.962;5.340;2023-06-10T05:52:20;8.35;;;6.68;;
40847;SDS011;26570;50.962;5.340;2023-06-10T05:55:56;7.22;;;6.45;;
40847;SDS011;26570;50.962;5.340;2023-06-10T06:03:36;6.32;;;5.55;;
40847;SDS011;26570;50.962;5.340;2023-06-10T06:35:24;4.55;;;2.35;;
40847;SDS011;26570;50.962;5.340;2023-06-10T06:39:28;6.68;;;2.22;;
40847;SDS011;26570;50.962;5.340;2023-06-10T06:43:08;3.95;;;1.90;;
40847;SDS011;26570;50.962;5.340;2023-06-10T06:46:23;3.95;;;1.95;;
40847;SDS011;26570;50.962;5.340;2023-06-10T06:49:49;6.10;;;2.00;;
40847;SDS011;26570;50.962;5.340;2023-06-10T07:05:13;2.97;;;1.40;;
40847;SDS011;26570;50.962;5.340;2023-06-10T07:12:35;2.55;;;1.27;;
40847;SDS011;26570;50.962;5.340;2023-06-10T07:15:52;3.08;;;1.45;;
40847;SDS011;26570;50.962;5.340;2023-06-10T07:18:57;2.42;;;1.55;;
40847;SDS011;26570;50.962;5.340;2023-06-10T07:22:32;3.40;;;1.65;;
40847;SDS011;26570;50.962;5.340;2023-06-10T07:25:52;3.63;;;1.77;;
40847;SDS011;26570;50.962;5.340;2023-06-10T07:29:11;2.63;;;1.40;;
40847;SDS011;26570;50.962;5.340;2023-06-10T07:32:31;4.43;;;1.50;;
40847;SDS011;26570;50.962;5.340;2023-06-10T07:35:50;2.40;;;1.40;;
40847;SDS011;26570;50.962;5.340;2023-06-10T07:39:21;2.80;;;1.45;;
40847;SDS011;26570;50.962;5.340;2023-06-10T07:42:48;3.33;;;1.67;;
40847;SDS011;26570;50.962;5.340;2023-06-10T07:46:19;2.70;;;1.30;;
40847;SDS011;26570;50.962;5.340;2023-06-10T07:49:49;3.85;;;1.48;;
40847;SDS011;26570;50.962;5.340;2023-06-10T07:52:37;1.90;;;1.30;;
40847;SDS011;26570;50.962;5.340;2023-06-10T07:55:27;3.95;;;1.20;;
40847;SDS011;26570;50.962;5.340;2023-06-10T07:58:56;2.70;;;1.30;;
40847;SDS011;26570;50.962;5.340;2023-06-10T08:02:41;3.60;;;1.33;;
40847;SDS011;26570;50.962;5.340;2023-06-10T08:05:50;2.80;;;1.40;;
40847;SDS011;26570;50.962;5.340;2023-06-10T08:09:30;3.67;;;1.40;;
40847;SDS011;26570;50.962;5.340;2023-06-10T08:12:42;2.80;;;1.20;;
40847;SDS011;26570;50.962;5.340;2023-06-10T08:16:07;2.40;;;1.30;;
40847;SDS011;26570;50.962;5.340;2023-06-10T08:19:24;2.28;;;1.40;;
40847;SDS011;26570;50.962;5.340;2023-06-10T08:22:37;3.00;;;1.95;;
40847;SDS011;26570;50.962;5.340;2023-06-10T08:26:08;3.47;;;1.00;;
40847;SDS011;26570;50.962;5.340;2023-06-10T08:29:03;4.50;;;1.17;;
40847;SDS011;26570;50.962;5.340;2023-06-10T08:31:51;4.40;;;1.60;;
40847;SDS011;26570;50.962;5.340;2023-06-10T08:35:18;2.90;;;1.20;;
40847;SDS011;26570;50.962;5.340;2023-06-10T08:38:50;3.42;;;1.73;;
40847;SDS011;26570;50.962;5.340;2023-06-10T08:41:43;7.15;;;1.45;;
40847;SDS011;26570;50.962;5.340;2023-06-10T08:48:07;4.78;;;1.15;;
40847;SDS011;26570;50.962;5.340;2023-06-10T08:54:38;6.82;;;1.30;;
40847;SDS011;26570;50.962;5.340;2023-06-10T08:58:24;3.58;;;1.42;;
40847;SDS011;26570;50.962;5.340;2023-06-10T09:01:57;2.80;;;1.40;;
40847;SDS011;26570;50.962;5.340;2023-06-10T09:05:18;2.58;;;1.80;;
40847;SDS011;26570;50.962;5.340;2023-06-10T09:08:43;3.70;;;1.48;;
40847;SDS011;26570;50.962;5.340;2023-06-10T09:12:22;3.88;;;1.65;;
40847;SDS011;26570;50.962;5.340;2023-06-10T09:15:50;3.70;;;1.27;;
40847;SDS011;26570;50.962;5.340;2023-06-10T09:19:07;2.72;;;1.02;;
40847;SDS011;26570;50.962;5.340;2023-06-10T09:23:01;3.30;;;1.48;;
40847;SDS011;26570;50.962;5.340;2023-06-10T09:26:08;3.67;;;1.23;;
40847;SDS011;26570;50.962;5.340;2023-06-10T09:33:11;3.03;;;1.20;;
40847;SDS011;26570;50.962;5.340;2023-06-10T09:39:29;3.00;;;1.13;;
40847;SDS011;26570;50.962;5.340;2023-06-10T09:43:02;2.75;;;1.25;;
40847;SDS011;26570;50.962;5.340;2023-06-10T09:46:41;2.38;;;1.30;;
40847;SDS011;26570;50.962;5.340;2023-06-10T09:50:19;2.65;;;1.17;;
40847;SDS011;26570;50.962;5.340;2023-06-10T09:57:29;3.03;;;1.17;;
40847;SDS011;26570;50.962;5.340;2023-06-10T10:00:55;2.30;;;1.10;;
40847;SDS011;26570;50.962;5.340;2023-06-10T10:04:35;4.65;;;1.65;;
40847;SDS011;26570;50.962;5.340;2023-06-10T10:07:53;1.77;;;1.10;;
40847;SDS011;26570;50.962;5.340;2023-06-10T10:11:32;4.20;;;1.42;;
40847;SDS011;26570;50.962;5.340;2023-06-10T10:14:58;4.75;;;1.40;;
40847;SDS011;26570;50.962;5.340;2023-06-10T10:18:13;3.70;;;1.10;;
40847;SDS011;26570;50.962;5.340;2023-06-10T10:21:43;4.65;;;1.42;;
40847;SDS011;26570;50.962;5.340;2023-06-10T10:36:32;4.23;;;1.30;;
40847;SDS011;26570;50.962;5.340;2023-06-10T10:43:45;4.10;;;1.25;;
40847;SDS011;26570;50.962;5.340;2023-06-10T10:47:27;3.92;;;1.15;;
40847;SDS011;26570;50.962;5.340;2023-06-10T10:59:03;4.30;;;1.02;;
40847;SDS011;26570;50.962;5.340;2023-06-10T11:02:41;2.78;;;1.63;;
40847;SDS011;26570;50.962;5.340;2023-06-10T11:09:57;2.22;;;1.50;;
40847;SDS011;26570;50.962;5.340;2023-06-10T11:13:18;3.10;;;1.10;;
40847;SDS011;26570;50.962;5.340;2023-06-10T11:16:49;2.08;;;1.08;;
40847;SDS011;26570;50.962;5.340;2023-06-10T11:20:41;2.78;;;1.20;;
40847;SDS011;26570;50.962;5.340;2023-06-10T11:28:08;2.90;;;1.40;;
40847;SDS011;26570;50.962;5.340;2023-06-10T11:31:55;7.43;;;1.90;;
40847;SDS011;26570;50.962;5.340;2023-06-10T11:39:15;7.80;;;1.13;;
40847;SDS011;26570;50.962;5.340;2023-06-10T11:46:51;3.28;;;1.20;;
40847;SDS011;26570;50.962;5.340;2023-06-10T11:50:13;3.05;;;1.13;;
40847;SDS011;26570;50.962;5.340;2023-06-10T11:54:00;2.92;;;1.30;;
40847;SDS011;26570;50.962;5.340;2023-06-10T11:57:41;1.98;;;1.23;;
40847;SDS011;26570;50.962;5.340;2023-06-10T12:04:33;3.85;;;1.25;;
40847;SDS011;26570;50.962;5.340;2023-06-10T12:08:11;2.60;;;1.40;;
40847;SDS011;26570;50.962;5.340;2023-06-10T12:11:23;2.85;;;1.33;;
40847;SDS011;26570;50.962;5.340;2023-06-10T12:18:50;3.97;;;1.17;;
40847;SDS011;26570;50.962;5.340;2023-06-10T12:22:20;5.28;;;0.95;;
40847;SDS011;26570;50.962;5.340;2023-06-10T12:26:03;5.32;;;1.17;;
40847;SDS011;26570;50.962;5.340;2023-06-10T12:33:26;1.95;;;1.15;;
40847;SDS011;26570;50.962;5.340;2023-06-10T12:37:10;4.43;;;1.15;;
40847;SDS011;26570;50.962;5.340;2023-06-10T12:52:43;2.05;;;1.25;;
40847;SDS011;26570;50.962;5.340;2023-06-10T12:56:19;2.78;;;1.00;;
40847;SDS011;26570;50.962;5.340;2023-06-10T13:03:32;2.17;;;0.80;;
40847;SDS011;26570;50.962;5.340;2023-06-10T13:06:35;1.88;;;0.95;;
40847;SDS011;26570;50.962;5.340;2023-06-10T13:12:11;3.25;;;1.48;;
40847;SDS011;26570;50.962;5.340;2023-06-10T13:18:32;2.97;;;1.05;;
40847;SDS011;26570;50.962;5.340;2023-06-10T13:22:00;3.72;;;1.10;;
40847;SDS011;26570;50.962;5.340;2023-06-10T13:25:29;2.42;;;1.02;;
40847;SDS011;26570;50.962;5.340;2023-06-10T13:28:57;1.63;;;0.98;;
40847;SDS011;26570;50.962;5.340;2023-06-10T13:33:03;1.67;;;0.90;;
40847;SDS011;26570;50.962;5.340;2023-06-10T13:36:40;1.20;;;0.80;;
40847;SDS011;26570;50.962;5.340;2023-06-10T13:39:37;2.78;;;0.82;;
40847;SDS011;26570;50.962;5.340;2023-06-10T13:43:01;3.53;;;1.45;;
40847;SDS011;26570;50.962;5.340;2023-06-10T13:46:31;2.75;;;1.00;;
40847;SDS011;26570;50.962;5.340;2023-06-10T13:53:30;3.78;;;0.93;;
40847;SDS011;26570;50.962;5.340;2023-06-10T13:56:58;5.32;;;1.00;;
40847;SDS011;26570;50.962;5.340;2023-06-10T13:59:56;1.73;;;0.82;;
40847;SDS011;26570;50.962;5.340;2023-06-10T14:03:19;1.77;;;0.80;;
40847;SDS011;26570;50.962;5.340;2023-06-10T14:06:24;2.70;;;0.80;;
40847;SDS011;26570;50.962;5.340;2023-06-10T14:09:41;3.42;;;0.77;;
40847;SDS011;26570;50.962;5.340;2023-06-10T14:13:11;3.33;;;1.00;;
40847;SDS011;26570;50.962;5.340;2023-06-10T14:16:47;3.67;;;0.95;;
40847;SDS011;26570;50.962;5.340;2023-06-10T14:20:21;4.28;;;1.05;;
40847;SDS011;26570;50.962;5.340;2023-06-10T14:23:50;2.00;;;1.00;;
40847;SDS011;26570;50.962;5.340;2023-06-10T14:26:49;1.48;;;0.90;;
40847;SDS011;26570;50.962;5.340;2023-06-10T14:30:16;1.58;;;0.90;;
40847;SDS011;26570;50.962;5.340;2023-06-10T14:33:22;2.63;;;0.90;;
40847;SDS011;26570;50.962;5.340;2023-06-10T14:36:59;3.13;;;1.20;;
40847;SDS011;26570;50.962;5.340;2023-06-10T14:40:24;2.17;;;0.80;;
40847;SDS011;26570;50.962;5.340;2023-06-10T14:44:01;3.60;;;1.35;;
40847;SDS011;26570;50.962;5.340;2023-06-10T14:47:37;2.03;;;0.80;;
40847;SDS011;26570;50.962;5.340;2023-06-10T14:50:29;5.03;;;1.00;;
40847;SDS011;26570;50.962;5.340;2023-06-10T14:54:19;2.50;;;1.20;;
40847;SDS011;26570;50.962;5.340;2023-06-10T14:58:03;1.92;;;0.82;;
40847;SDS011;26570;50.962;5.340;2023-06-10T15:01:12;3.22;;;1.10;;
40847;SDS011;26570;50.962;5.340;2023-06-10T15:04:25;3.65;;;1.17;;
40847;SDS011;26570;50.962;5.340;2023-06-10T15:07:57;2.72;;;1.13;;
40847;SDS011;26570;50.962;5.340;2023-06-10T15:11:13;2.45;;;1.20;;
40847;SDS011;26570;50.962;5.340;2023-06-10T15:15:08;3.83;;;1.05;;
40847;SDS011;26570;50.962;5.340;2023-06-10T15:18:54;3.63;;;1.10;;
40847;SDS011;26570;50.962;5.340;2023-06-10T15:22:21;4.10;;;1.38;;
40847;SDS011;26570;50.962;5.340;2023-06-10T15:25:21;7.00;;;1.40;;
40847;SDS011;26570;50.962;5.340;2023-06-10T15:28:51;2.08;;;1.33;;
40847;SDS011;26570;50.962;5.340;2023-06-10T15:32:41;2.33;;;1.35;;
40847;SDS011;26570;50.962;5.340;2023-06-10T15:36:17;3.22;;;1.10;;
40847;SDS011;26570;50.962;5.340;2023-06-10T15:39:24;2.40;;;1.27;;
40847;SDS011;26570;50.962;5.340;2023-06-10T15:42:33;2.28;;;1.40;;
40847;SDS011;26570;50.962;5.340;2023-06-10T15:45:46;3.92;;;1.35;;
40847;SDS011;26570;50.962;5.340;2023-06-10T15:49:13;1.75;;;1.20;;
40847;SDS011;26570;50.962;5.340;2023-06-10T15:52:52;3.42;;;1.55;;
40847;SDS011;26570;50.962;5.340;2023-06-10T15:56:46;6.38;;;1.98;;
40847;SDS011;26570;50.962;5.340;2023-06-10T16:00:02;2.50;;;1.88;;
40847;SDS011;26570;50.962;5.340;2023-06-10T16:02:52;6.65;;;1.48;;
40847;SDS011;26570;50.962;5.340;2023-06-10T16:06:29;2.15;;;1.27;;
40847;SDS011;26570;50.962;5.340;2023-06-10T16:09:59;2.70;;;1.30;;
40847;SDS011;26570;50.962;5.340;2023-06-10T16:13:23;1.88;;;1.10;;
40847;SDS011;26570;50.962;5.340;2023-06-10T16:16:28;4.38;;;1.40;;
40847;SDS011;26570;50.962;5.340;2023-06-10T16:19:47;2.67;;;1.23;;
40847;SDS011;26570;50.962;5.340;2023-06-10T16:23:19;1.75;;;1.30;;
40847;SDS011;26570;50.962;5.340;2023-06-10T16:26:51;1.98;;;1.38;;
40847;SDS011;26570;50.962;5.340;2023-06-10T16:33:50;4.10;;;1.52;;
40847;SDS011;26570;50.962;5.340;2023-06-10T16:37:18;4.07;;;1.08;;
40847;SDS011;26570;50.962;5.340;2023-06-10T16:40:29;2.30;;;1.30;;
40847;SDS011;26570;50.962;5.340;2023-06-10T16:44:04;3.25;;;1.73;;
40847;SDS011;26570;50.962;5.340;2023-06-10T16:47:19;3.58;;;1.30;;
40847;SDS011;26570;50.962;5.340;2023-06-10T16:50:24;4.13;;;1.38;;
40847;SDS011;26570;50.962;5.340;2023-06-10T16:54:08;2.70;;;1.20;;
40847;SDS011;26570;50.962;5.340;2023-06-10T16:57:19;3.03;;;1.45;;
40847;SDS011;26570;50.962;5.340;2023-06-10T17:00:36;3.17;;;1.52;;
40847;SDS011;26570;50.962;5.340;2023-06-10T17:04:07;3.65;;;1.30;;
40847;SDS011;26570;50.962;5.340;2023-06-10T17:07:38;2.17;;;1.45;;
40847;SDS011;26570;50.962;5.340;2023-06-10T17:11:25;2.92;;;1.20;;
40847;SDS011;26570;50.962;5.340;2023-06-10T17:15:02;2.20;;;1.58;;
40847;SDS011;26570;50.962;5.340;2023-06-10T17:18:17;2.00;;;1.30;;
40847;SDS011;26570;50.962;5.340;2023-06-10T17:22:02;5.43;;;1.60;;
40847;SDS011;26570;50.962;5.340;2023-06-10T17:25:19;2.40;;;1.67;;
40847;SDS011;26570;50.962;5.340;2023-06-10T17:28:42;4.30;;;1.63;;
40847;SDS011;26570;50.962;5.340;2023-06-10T17:31:42;4.55;;;1.42;;
40847;SDS011;26570;50.962;5.340;2023-06-10T17:35:18;2.30;;;1.27;;
40847;SDS011;26570;50.962;5.340;2023-06-10T17:38:25;5.65;;;1.50;;
40847;SDS011;26570;50.962;5.340;2023-06-10T17:41:56;4.10;;;1.23;;
40847;SDS011;26570;50.962;5.340;2023-06-10T17:49:20;3.53;;;1.10;;
40847;SDS011;26570;50.962;5.340;2023-06-10T17:52:47;2.35;;;1.58;;
40847;SDS011;26570;50.962;5.340;2023-06-10T17:56:13;3.20;;;1.40;;
40847;SDS011;26570;50.962;5.340;2023-06-10T17:59:12;2.60;;;1.80;;
40847;SDS011;26570;50.962;5.340;2023-06-10T18:02:28;2.70;;;1.58;;
40847;SDS011;26570;50.962;5.340;2023-06-10T18:05:42;2.72;;;1.45;;
40847;SDS011;26570;50.962;5.340;2023-06-10T18:09:14;2.28;;;1.33;;
40847;SDS011;26570;50.962;5.340;2023-06-10T18:12:20;2.35;;;1.90;;
40847;SDS011;26570;50.962;5.340;2023-06-10T18:15:28;3.35;;;1.60;;
40847;SDS011;26570;50.962;5.340;2023-06-10T18:18:29;9.07;;;1.65;;
40847;SDS011;26570;50.962;5.340;2023-06-10T18:21:56;2.90;;;1.40;;
40847;SDS011;26570;50.962;5.340;2023-06-10T18:25:57;2.05;;;1.65;;
40847;SDS011;26570;50.962;5.340;2023-06-10T18:28:46;5.00;;;2.05;;
40847;SDS011;26570;50.962;5.340;2023-06-10T18:31:43;5.65;;;2.88;;
40847;SDS011;26570;50.962;5.340;2023-06-10T18:34:50;7.55;;;1.73;;
40847;SDS011;26570;50.962;5.340;2023-06-10T18:38:14;6.18;;;1.55;;
40847;SDS011;26570;50.962;5.340;2023-06-10T18:41:50;3.90;;;1.83;;
40847;SDS011;26570;50.962;5.340;2023-06-10T18:45:12;3.20;;;1.38;;
40847;SDS011;26570;50.962;5.340;2023-06-10T18:48:11;5.85;;;1.80;;
40847;SDS011;26570;50.962;5.340;2023-06-10T18:51:31;2.35;;;1.67;;
40847;SDS011;26570;50.962;5.340;2023-06-10T18:54:47;2.33;;;1.70;;
40847;SDS011;26570;50.962;5.340;2023-06-10T18:57:59;5.95;;;1.83;;
40847;SDS011;26570;50.962;5.340;2023-06-10T19:00:52;2.72;;;1.75;;
40847;SDS011;26570;50.962;5.340;2023-06-10T19:04:10;4.90;;;2.03;;
40847;SDS011;26570;50.962;5.340;2023-06-10T19:07:00;3.72;;;1.85;;
40847;SDS011;26570;50.962;5.340;2023-06-10T19:10:08;4.82;;;1.85;;
40847;SDS011;26570;50.962;5.340;2023-06-10T19:13:36;2.95;;;1.92;;
40847;SDS011;26570;50.962;5.340;2023-06-10T19:16:50;3.53;;;1.95;;
40847;SDS011;26570;50.962;5.340;2023-06-10T19:19:54;2.15;;;1.23;;
40847;SDS011;26570;50.962;5.340;2023-06-10T19:23:13;2.30;;;1.40;;
40847;SDS011;26570;50.962;5.340;2023-06-10T19:26:43;4.72;;;1.90;;
40847;SDS011;26570;50.962;5.340;2023-06-10T19:29:35;2.88;;;1.63;;
40847;SDS011;26570;50.962;5.340;2023-06-10T19:33:09;4.18;;;1.45;;
40847;SDS011;26570;50.962;5.340;2023-06-10T19:36:09;3.22;;;1.83;;
40847;SDS011;26570;50.962;5.340;2023-06-10T19:39:47;2.70;;;1.58;;
40847;SDS011;26570;50.962;5.340;2023-06-10T19:42:59;5.35;;;1.63;;
40847;SDS011;26570;50.962;5.340;2023-06-10T19:46:29;3.88;;;1.83;;
40847;SDS011;26570;50.962;5.340;2023-06-10T19:49:27;3.00;;;2.00;;
40847;SDS011;26570;50.962;5.340;2023-06-10T19:53:07;3.75;;;2.00;;
40847;SDS011;26570;50.962;5.340;2023-06-10T19:55:58;5.60;;;2.05;;
40847;SDS011;26570;50.962;5.340;2023-06-10T19:58:49;3.28;;;2.15;;
40847;SDS011;26570;50.962;5.340;2023-06-10T20:02:12;3.30;;;2.67;;
40847;SDS011;26570;50.962;5.340;2023-06-10T20:05:18;5.82;;;2.65;;
40847;SDS011;26570;50.962;5.340;2023-06-10T20:12:52;3.22;;;2.85;;
40847;SDS011;26570;50.962;5.340;2023-06-10T20:16:12;3.83;;;2.67;;
40847;SDS011;26570;50.962;5.340;2023-06-10T20:19:52;3.20;;;2.67;;
40847;SDS011;26570;50.962;5.340;2023-06-10T20:23:08;6.68;;;2.42;;
40847;SDS011;26570;50.962;5.340;2023-06-10T20:26:48;3.53;;;2.80;;
40847;SDS011;26570;50.962;5.340;2023-06-10T20:32:59;3.33;;;2.95;;
40847;SDS011;26570;50.962;5.340;2023-06-10T20:36:17;5.55;;;2.42;;
40847;SDS011;26570;50.962;5.340;2023-06-10T20:39:32;3.85;;;3.03;;
40847;SDS011;26570;50.962;5.340;2023-06-10T20:43:02;4.70;;;3.33;;
40847;SDS011;26570;50.962;5.340;2023-06-10T20:46:23;8.32;;;3.25;;
40847;SDS011;26570;50.962;5.340;2023-06-10T20:50:01;6.20;;;3.08;;
40847;SDS011;26570;50.962;5.340;2023-06-10T20:53:20;4.75;;;3.20;;
40847;SDS011;26570;50.962;5.340;2023-06-10T20:57:05;6.22;;;3.50;;
40847;SDS011;26570;50.962;5.340;2023-06-10T21:00:47;3.85;;;3.05;;
40847;SDS011;26570;50.962;5.340;2023-06-10T21:04:33;4.78;;;2.85;;
40847;SDS011;26570;50.962;5.340;2023-06-10T21:07:48;3.97;;;2.80;;
40847;SDS011;26570;50.962;5.340;2023-06-10T21:10:48;6.05;;;3.22;;
40847;SDS011;26570;50.962;5.340;2023-06-10T21:14:04;5.65;;;3.22;;
40847;SDS011;26570;50.962;5.340;2023-06-10T21:18:02;8.95;;;3.80;;
40847;SDS011;26570;50.962;5.340;2023-06-10T21:21:26;4.68;;;2.88;;
40847;SDS011;26570;50.962;5.340;2023-06-10T21:25:14;4.93;;;3.22;;
40847;SDS011;26570;50.962;5.340;2023-06-10T21:28:33;9.15;;;3.65;;
40847;SDS011;26570;50.962;5.340;2023-06-10T21:31:59;11.40;;;3.80;;
40847;SDS011;26570;50.962;5.340;2023-06-10T21:35:25;4.35;;;3.70;;
40847;SDS011;26570;50.962;5.340;2023-06-10T21:38:18;5.85;;;4.18;;
40847;SDS011;26570;50.962;5.340;2023-06-10T21:41:47;6.28;;;3.72;;
40847;SDS011;26570;50.962;5.340;2023-06-10T21:45:51;4.95;;;4.05;;
40847;SDS011;26570;50.962;5.340;2023-06-10T21:48:42;8.48;;;3.88;;
40847;SDS011;26570;50.962;5.340;2023-06-10T21:55:46;4.13;;;3.70;;
40847;SDS011;26570;50.962;5.340;2023-06-10T21:59:17;5.30;;;4.20;;
40847;SDS011;26570;50.962;5.340;2023-06-10T22:02:48;5.65;;;3.88;;
40847;SDS011;26570;50.962;5.340;2023-06-10T22:05:45;6.15;;;4.00;;
40847;SDS011;26570;50.962;5.340;2023-06-10T22:09:13;8.68;;;3.97;;
40847;SDS011;26570;50.962;5.340;2023-06-10T22:12:00;5.40;;;3.05;;
40847;SDS011;26570;50.962;5.340;2023-06-10T22:14:51;7.10;;;3.53;;
40847;SDS011;26570;50.962;5.340;2023-06-10T22:21:45;4.32;;;3.10;;
40847;SDS011;26570;50.962;5.340;2023-06-10T22:25:05;4.97;;;3.78;;
40847;SDS011;26570;50.962;5.340;2023-06-10T22:27:59;6.32;;;3.80;;
40847;SDS011;26570;50.962;5.340;2023-06-10T22:34:53;7.63;;;3.67;;
40847;SDS011;26570;50.962;5.340;2023-06-10T22:38:16;4.57;;;3.50;;
40847;SDS011;26570;50.962;5.340;2023-06-10T22:41:14;7.40;;;3.92;;
40847;SDS011;26570;50.962;5.340;2023-06-10T22:44:22;5.10;;;3.95;;